Time;durP1;ratioP1;P1;durP2;ratioP2;P2;SDS_P1;SDS_P2;PMS_P1;PMS_P2;Temp;Humidity;BMP_temperature;BMP_pressure;BME280_temperature;BME280_humidity;BME280_pressure;Samples;Min_cycle;Max_cycle;Signal;HPM_P1;HPM_P2
2021/11/10 00:01:44;;;;;;;2.87;2.60;;;;;;;21.12;53.07;98292.41;4995281;28;20261;-67
2021/11/10 00:04:11;;;;;;;2.50;2.30;;;;;;;20.39;53.00;98160.59;4994830;28;20461;-70
2021/11/10 00:06:38;;;;;;;2.87;2.57;;;;;;;21.11;52.82;98296.66;4977731;28;20280;-70
2021/11/10 00:09:05;;;;;;;3.23;2.30;;;;;;;20.24;52.74;98151.38;4997415;28;20218;-68
2021/11/10 00:11:31;;;;;;;2.80;2.53;;;;;;;20.82;52.96;98248.50;4990652;28;20206;-67
2021/11/10 00:13:58;;;;;;;3.13;2.60;;;;;;;21.04;53.19;98276.75;4961413;28;20234;-70
2021/11/10 00:16:25;;;;;;;3.03;2.73;;;;;;;21.07;52.89;98276.00;4977272;28;20254;-67
2021/11/10 00:18:52;;;;;;;2.83;2.43;;;;;;;21.11;52.75;98280.47;4977648;28;20207;-67
2021/11/10 00:21:19;;;;;;;2.93;2.60;;;;;;;20.91;52.70;98251.47;4977535;28;20234;-71
2021/11/10 00:23:46;;;;;;;2.50;2.30;;;;;;;21.11;52.58;98278.75;4977554;28;20207;-67
2021/11/10 00:26:12;;;;;;;3.13;2.83;;;;;;;21.11;52.74;98291.53;4977275;28;20878;-67
2021/11/10 00:28:39;;;;;;;2.57;2.37;;;;;;;21.03;52.68;98274.13;4994907;28;20286;-71
2021/11/10 00:31:06;;;;;;;2.70;2.50;;;;;;;20.74;52.85;98241.28;4980908;28;20281;-69
2021/11/10 00:33:33;;;;;;;2.70;2.50;;;;;;;21.12;52.47;98300.97;4993862;28;20235;-67
2021/11/10 00:35:59;;;;;;;2.63;2.40;;;;;;;21.11;52.53;98299.19;4960652;28;20703;-69
2021/11/10 00:38:26;;;;;;;2.80;2.60;;;;;;;21.10;52.52;98297.47;4972433;28;20286;-67
2021/11/10 00:40:53;;;;;;;3.47;2.63;;;;;;;21.09;52.84;98297.41;4989725;28;20231;-67
2021/11/10 00:43:19;;;;;;;3.57;2.47;;;;;;;20.95;52.80;98276.38;4992865;28;20291;-67
2021/11/10 00:45:46;;;;;;;2.73;2.53;;;;;;;21.07;52.92;98302.44;4976817;28;20223;-71
2021/11/10 00:48:12;;;;;;;3.00;2.70;;;;;;;21.07;52.69;98296.44;4974146;28;20730;-68
2021/11/10 00:50:39;;;;;;;2.87;2.53;;;;;;;21.06;53.44;98300.72;4976593;28;20202;-71
2021/11/10 00:53:06;;;;;;;2.50;2.30;;;;;;;20.99;53.31;98295.28;4989744;28;20214;-67
2021/11/10 00:55:34;;;;;;;3.00;2.70;;;;;;;21.07;53.23;98309.22;4975238;28;20289;-70
2021/11/10 00:58:01;;;;;;;2.83;2.60;;;;;;;20.73;53.04;98254.88;4976369;28;20245;-72
2021/11/10 01:00:28;;;;;;;3.07;2.77;;;;;;;21.03;53.16;98304.81;4976489;28;20719;-67
2021/11/10 01:02:55;;;;;;;2.77;2.57;;;;;;;21.06;53.37;98310.94;4961456;28;20553;-69
2021/11/10 01:05:22;;;;;;;2.47;2.27;;;;;;;21.06;53.07;98313.50;4981780;28;20250;-67
2021/11/10 01:07:48;;;;;;;2.90;2.60;;;;;;;21.05;53.47;98311.72;4956061;28;20258;-66
2021/11/10 01:10:15;;;;;;;2.67;2.47;;;;;;;20.94;53.11;98287.38;4993758;28;20233;-67
2021/11/10 01:12:42;;;;;;;2.80;2.60;;;;;;;21.02;53.12;98303.91;4976871;28;20227;-68
2021/11/10 01:15:09;;;;;;;2.70;2.50;;;;;;;21.07;52.92;98319.44;4975855;28;20305;-67
2021/11/10 01:17:36;;;;;;;2.80;2.60;;;;;;;21.07;53.01;98311.78;4994149;28;20238;-72
2021/11/10 01:20:05;;;;;;;2.50;2.30;;;;;;;20.95;52.93;98298.47;4993808;28;20226;-67
2021/11/10 01:22:31;;;;;;;2.77;2.57;;;;;;;21.06;53.04;98317.72;4969577;28;20962;-66
2021/11/10 01:24:58;;;;;;;2.73;2.53;;;;;;;21.06;52.87;98321.16;4976677;28;20198;-72
2021/11/10 01:27:25;;;;;;;2.97;2.63;;;;;;;21.01;52.67;98299.63;4976269;28;20214;-68
2021/11/10 01:29:51;;;;;;;2.83;2.63;;;;;;;21.05;52.61;98313.44;4976669;28;20199;-67
2021/11/10 01:32:18;;;;;;;2.60;2.40;;;;;;;20.98;53.04;98302.06;4993120;28;20605;-67
2021/11/10 01:34:44;;;;;;;2.47;2.27;;;;;;;21.00;53.31;98291.91;4958023;28;20230;-67
2021/11/10 01:37:11;;;;;;;2.47;2.20;;;;;;;21.04;53.36;98306.53;4973493;28;20290;-71
2021/11/10 01:39:38;;;;;;;2.67;2.47;;;;;;;21.04;53.58;98303.97;4976396;28;20223;-67
2021/11/10 01:42:06;;;;;;;2.60;2.40;;;;;;;20.95;53.29;98276.38;5000427;28;20195;-73
2021/11/10 01:44:36;;;;;;;3.43;2.87;;;;;;;21.00;53.11;98281.66;4975665;28;20300;-66
2021/11/10 01:47:08;;;;;;;3.10;2.63;;;;;;;20.84;53.08;98246.88;4993437;28;20714;-67
2021/11/10 01:49:39;;;;;;;3.97;2.93;;;;;;;20.78;52.83;98231.28;4982687;28;20261;-67
2021/11/10 01:52:06;;;;;;;3.20;2.90;;;;;;;21.01;52.96;98268.97;4983157;28;20223;-72
2021/11/10 01:54:34;;;;;;;2.60;2.40;;;;;;;20.99;52.80;98260.34;4986066;28;20300;-67
2021/11/10 01:57:01;;;;;;;2.47;2.27;;;;;;;20.96;52.48;98247.44;4982123;28;20261;-70
2021/11/10 01:59:35;;;;;;;2.70;2.50;;;;;;;19.99;52.85;98076.28;4975115;28;20241;-70
2021/11/10 02:02:04;;;;;;;3.07;2.50;;;;;;;21.04;52.77;98257.97;4970526;28;20201;-68
2021/11/10 02:04:32;;;;;;;2.70;2.50;;;;;;;20.80;52.71;98205.81;4990660;28;20202;-68
2021/11/10 02:06:59;;;;;;;3.17;2.87;;;;;;;20.93;52.64;98219.16;4969880;28;20240;-68
2021/11/10 02:09:26;;;;;;;3.03;2.73;;;;;;;21.03;52.45;98240.91;4975724;28;20606;-64
2021/11/10 02:11:53;;;;;;;2.70;2.50;;;;;;;21.02;52.67;98239.19;4992827;28;20226;-67
2021/11/10 02:14:20;;;;;;;2.80;2.60;;;;;;;21.02;52.71;98242.59;4992706;28;20233;-69
2021/11/10 02:16:47;;;;;;;2.83;2.63;;;;;;;20.69;52.99;98182.34;4993127;28;20302;-72
2021/11/10 02:19:15;;;;;;;3.13;2.83;;;;;;;21.00;52.97;98236.56;4983132;28;20218;-67
2021/11/10 02:21:45;;;;;;;3.17;2.87;;;;;;;21.00;53.02;98240.78;4975135;28;20223;-67
2021/11/10 02:24:12;;;;;;;2.53;2.33;;;;;;;20.88;53.37;98220.66;4979485;28;20222;-70
2021/11/10 02:26:41;;;;;;;2.70;2.50;;;;;;;21.01;53.12;98232.28;4961890;28;20277;-68
2021/11/10 02:29:10;;;;;;;3.10;2.80;;;;;;;20.93;52.96;98220.88;4969763;28;20238;-67
2021/11/10 02:31:36;;;;;;;3.20;2.50;;;;;;;21.01;52.74;98233.19;4975029;28;20241;-70
2021/11/10 02:34:03;;;;;;;2.57;2.37;;;;;;;20.65;52.90;98170.28;4970065;28;20199;-70
2021/11/10 02:36:31;;;;;;;3.07;2.77;;;;;;;21.00;52.64;98236.56;4975134;28;20314;-67
2021/11/10 02:39:03;;;;;;;3.07;2.77;;;;;;;21.00;52.75;98234.00;4992804;28;20248;-67
2021/11/10 02:41:29;;;;;;;3.87;2.80;;;;;;;20.99;52.28;98226.28;4974906;28;20205;-68
2021/11/10 02:43:56;;;;;;;3.40;3.10;;;;;;;21.00;52.42;98226.34;4959261;28;20660;-67
2021/11/10 02:46:23;;;;;;;2.50;2.30;;;;;;;20.90;52.19;98210.50;4974390;28;20876;-67
2021/11/10 02:48:50;;;;;;;3.23;2.80;;;;;;;20.86;52.42;98206.06;4959421;28;20191;-67
2021/11/10 02:51:16;;;;;;;3.07;2.77;;;;;;;21.01;52.46;98229.75;4971493;28;20230;-69
2021/11/10 02:53:43;;;;;;;2.80;2.60;;;;;;;20.95;52.38;98216.72;4982004;28;20293;-67
2021/11/10 02:56:09;;;;;;;3.37;2.80;;;;;;;20.69;52.31;98171.28;4973952;28;20313;-67
2021/11/10 02:58:36;;;;;;;3.07;2.40;;;;;;;20.99;52.60;98229.69;4975390;28;20203;-67
2021/11/10 03:01:04;;;;;;;2.60;2.40;;;;;;;20.86;52.78;98211.16;4997323;28;20286;-68
2021/11/10 03:03:31;;;;;;;2.70;2.50;;;;;;;20.97;52.95;98236.44;4949050;28;20203;-67
2021/11/10 03:05:58;;;;;;;2.60;2.40;;;;;;;20.98;52.89;98243.28;4973816;28;20274;-68
2021/11/10 03:08:24;;;;;;;2.80;2.60;;;;;;;20.98;53.04;98235.59;4974358;28;20237;-73
2021/11/10 03:10:51;;;;;;;2.77;2.57;;;;;;;20.99;52.72;98227.13;4993287;28;20199;-68
2021/11/10 03:13:17;;;;;;;3.27;2.97;;;;;;;20.20;52.42;98104.47;4991639;28;20226;-67
2021/11/10 03:15:45;;;;;;;3.20;2.73;;;;;;;19.86;52.11;98045.06;4956095;28;20282;-67
2021/11/10 03:18:12;;;;;;;3.13;2.67;;;;;;;20.99;52.46;98232.22;4975229;28;20195;-70
2021/11/10 03:20:43;;;;;;;3.20;2.90;;;;;;;20.92;52.22;98219.09;4992002;28;20210;-73
2021/11/10 03:23:10;;;;;;;3.47;2.70;;;;;;;21.00;52.73;98222.91;4958798;28;20257;-67
2021/11/10 03:25:36;;;;;;;3.20;2.90;;;;;;;21.00;52.62;98241.66;4991641;28;20277;-67
2021/11/10 03:28:03;;;;;;;3.03;2.73;;;;;;;20.93;52.19;98219.16;4998830;28;20691;-67
2021/11/10 03:30:29;;;;;;;3.57;3.00;;;;;;;20.46;51.82;98134.50;4958083;28;20195;-72
2021/11/10 03:32:56;;;;;;;3.30;3.00;;;;;;;20.99;52.06;98222.00;4976654;28;20230;-68
2021/11/10 03:35:23;;;;;;;4.80;2.83;;;;;;;20.92;51.90;98213.97;4995354;28;20226;-67
2021/11/10 03:37:49;;;;;;;3.80;2.93;;;;;;;21.01;51.90;98225.50;4991842;28;20321;-66
2021/11/10 03:40:16;;;;;;;3.00;2.70;;;;;;;20.93;51.96;98215.75;4991575;28;20195;-73
2021/11/10 03:42:43;;;;;;;2.80;2.60;;;;;;;21.01;52.12;98222.06;4974519;28;20645;-68
2021/11/10 03:45:12;;;;;;;2.97;2.70;;;;;;;20.99;51.95;98210.94;4995981;28;20214;-67
2021/11/10 03:47:39;;;;;;;4.07;3.20;;;;;;;20.96;51.88;98211.66;4973700;28;20237;-70
2021/11/10 03:50:06;;;;;;;2.63;2.43;;;;;;;20.97;52.08;98215.97;4997690;28;20214;-67
2021/11/10 03:52:32;;;;;;;2.77;2.57;;;;;;;20.88;51.80;98202.78;4974067;28;20286;-67
2021/11/10 03:54:59;;;;;;;3.30;3.00;;;;;;;21.01;51.94;98216.97;4991579;28;20234;-70
2021/11/10 03:57:26;;;;;;;3.20;2.67;;;;;;;20.97;51.76;98212.53;4975159;28;20581;-65
2021/11/10 03:59:52;;;;;;;2.93;2.60;;;;;;;20.02;52.12;98038.94;4981910;28;20202;-65
2021/11/10 04:02:19;;;;;;;2.80;2.60;;;;;;;20.86;52.71;98203.50;4973727;28;20235;-65
2021/11/10 04:04:45;;;;;;;2.70;2.50;;;;;;;20.17;52.44;98080.47;4990460;28;20253;-65
2021/11/10 04:07:12;;;;;;;2.70;2.50;;;;;;;20.98;52.59;98214.28;4974315;28;20262;-65
2021/11/10 04:09:39;;;;;;;3.33;2.60;;;;;;;20.88;52.81;98194.22;4991143;28;20613;-65
2021/11/10 04:12:07;;;;;;;3.10;2.50;;;;;;;20.98;52.54;98217.72;4981658;28;20286;-65
2021/11/10 04:14:33;;;;;;;3.73;2.57;;;;;;;20.97;52.84;98221.09;4994597;28;20257;-65
2021/11/10 04:17:01;;;;;;;2.83;2.63;;;;;;;20.98;52.51;98224.50;4982614;28;20269;-65
2021/11/10 04:19:28;;;;;;;2.77;2.57;;;;;;;20.95;52.32;98224.38;4994989;28;20234;-65
2021/11/10 04:21:54;;;;;;;3.23;2.47;;;;;;;20.64;52.35;98172.75;5002415;28;20772;-65
2021/11/10 04:24:21;;;;;;;3.07;2.77;;;;;;;20.95;52.16;98224.38;4994395;28;20636;-65
2021/11/10 04:26:48;;;;;;;3.10;2.80;;;;;;;20.77;52.07;98191.22;4994598;28;20214;-65
2021/11/10 04:29:14;;;;;;;3.13;2.83;;;;;;;20.98;52.42;98225.38;4994622;28;20257;-65
2021/11/10 04:31:41;;;;;;;3.20;2.90;;;;;;;20.99;51.90;98223.72;5004080;28;20285;-65
2021/11/10 04:34:07;;;;;;;3.00;2.70;;;;;;;20.94;51.92;98208.16;4980085;28;20729;-65
2021/11/10 04:36:35;;;;;;;2.67;2.47;;;;;;;20.81;51.96;98180.31;4995955;28;20266;-65
2021/11/10 04:39:01;;;;;;;2.70;2.50;;;;;;;20.99;51.85;98218.59;4977719;28;20195;-65
2021/11/10 04:41:28;;;;;;;2.67;2.47;;;;;;;20.98;51.63;98215.16;4994025;28;20676;-64
2021/11/10 04:43:55;;;;;;;2.93;2.73;;;;;;;20.95;51.77;98203.94;4994341;28;20226;-65
2021/11/10 04:46:31;;;;;;;2.90;2.70;;;;;;;20.95;51.83;98197.16;4993285;28;20242;-65
2021/11/10 04:48:58;;;;;;;3.03;2.73;;;;;;;20.95;51.82;98204.81;4994296;28;20585;-65
2021/11/10 04:51:26;;;;;;;2.50;2.30;;;;;;;20.99;51.85;98218.59;5000141;28;20422;-65
2021/11/10 04:53:53;;;;;;;2.53;2.33;;;;;;;20.91;51.95;98207.13;4996654;28;20199;-65
2021/11/10 04:56:22;;;;;;;2.77;2.57;;;;;;;20.97;51.76;98213.44;4975983;28;20313;-65
2021/11/10 04:58:49;;;;;;;3.00;2.70;;;;;;;20.90;52.11;98206.25;4995270;28;20250;-65
2021/11/10 05:01:22;;;;;;;3.37;3.07;;;;;;;20.88;52.57;98201.91;4981267;28;20199;-65
2021/11/10 05:03:48;;;;;;;2.80;2.60;;;;;;;20.89;52.65;98207.06;4992736;28;20556;-65
2021/11/10 05:06:15;;;;;;;3.03;2.50;;;;;;;20.89;52.50;98199.41;4992618;28;20273;-65
2021/11/10 05:08:42;;;;;;;4.50;2.60;;;;;;;20.95;52.03;98209.94;4961368;28;20230;-65
2021/11/10 05:11:08;;;;;;;3.17;2.50;;;;;;;20.96;52.46;98210.81;4993020;28;20592;-65
2021/11/10 05:13:35;;;;;;;3.10;2.80;;;;;;;20.95;52.34;98217.59;4993776;28;20642;-65
2021/11/10 05:16:01;;;;;;;2.83;2.63;;;;;;;20.96;52.16;98226.13;4996406;28;20269;-65
2021/11/10 05:18:28;;;;;;;2.70;2.50;;;;;;;20.98;51.93;98232.16;5001987;28;20314;-65
2021/11/10 05:20:54;;;;;;;2.97;2.67;;;;;;;20.80;52.07;98195.59;4995763;28;20226;-65
2021/11/10 05:23:22;;;;;;;3.17;2.73;;;;;;;20.85;52.07;98197.53;4976489;28;20241;-66
2021/11/10 05:25:49;;;;;;;3.50;2.70;;;;;;;20.70;51.97;98168.78;4975687;28;20207;-65
2021/11/10 05:28:16;;;;;;;2.87;2.60;;;;;;;20.97;51.78;98215.09;4976272;28;20249;-65
2021/11/10 05:30:42;;;;;;;3.00;2.60;;;;;;;20.97;51.92;98208.31;4993654;28;20195;-65
2021/11/10 05:33:09;;;;;;;3.03;2.73;;;;;;;20.96;51.95;98210.81;4979743;28;20232;-65
2021/11/10 05:35:36;;;;;;;3.07;2.77;;;;;;;20.97;51.81;98215.97;5001980;28;20657;-67
2021/11/10 05:38:03;;;;;;;2.80;2.60;;;;;;;20.97;51.55;98204.88;4994073;28;20226;-66
2021/11/10 05:40:30;;;;;;;2.70;2.50;;;;;;;20.98;51.57;98217.72;4993278;28;20230;-66
2021/11/10 05:42:57;;;;;;;3.13;2.83;;;;;;;20.98;51.38;98216.84;4994088;28;20657;-66
2021/11/10 05:45:23;;;;;;;3.10;2.80;;;;;;;20.96;51.58;98218.47;4993190;28;20250;-66
2021/11/10 05:47:50;;;;;;;2.87;2.67;;;;;;;20.49;51.91;98144.84;4993099;28;20770;-68
2021/11/10 05:50:17;;;;;;;3.00;2.70;;;;;;;20.95;52.13;98227.81;4959703;28;20547;-68
2021/11/10 05:52:44;;;;;;;3.13;2.83;;;;;;;20.83;52.35;98208.47;4976405;28;20199;-66
2021/11/10 05:55:11;;;;;;;2.47;2.27;;;;;;;20.95;52.46;98227.81;4975990;28;20231;-66
2021/11/10 05:57:39;;;;;;;2.60;2.40;;;;;;;20.95;52.01;98232.91;4992640;28;20266;-66
2021/11/10 06:00:07;;;;;;;3.03;2.73;;;;;;;20.87;52.05;98216.34;5009842;28;20190;-65
2021/11/10 06:02:33;;;;;;;3.20;2.77;;;;;;;20.70;52.20;98183.25;4993884;28;20199;-66
2021/11/10 06:05:00;;;;;;;3.20;2.67;;;;;;;20.87;51.75;98218.91;4988612;28;20206;-67
2021/11/10 06:07:27;;;;;;;3.10;2.80;;;;;;;20.68;52.13;98185.72;4992524;28;20274;-70
2021/11/10 06:09:53;;;;;;;2.50;2.30;;;;;;;20.87;51.85;98216.34;4976287;28;20247;-70
2021/11/10 06:12:20;;;;;;;2.87;2.67;;;;;;;20.97;51.75;98230.44;4975746;28;20195;-67
2021/11/10 06:14:46;;;;;;;3.47;2.90;;;;;;;20.97;52.17;98235.53;4994057;28;20195;-65
2021/11/10 06:17:13;;;;;;;2.97;2.77;;;;;;;20.97;51.88;98230.44;4987915;28;20651;-65
2021/11/10 06:19:40;;;;;;;2.73;2.53;;;;;;;20.97;52.05;98226.19;4976137;28;20235;-70
2021/11/10 06:22:06;;;;;;;3.27;2.93;;;;;;;20.93;51.48;98216.59;4983207;28;20289;-68
2021/11/10 06:24:33;;;;;;;3.03;2.73;;;;;;;20.92;51.72;98222.53;4992133;28;20664;-66
2021/11/10 06:27:00;;;;;;;2.83;2.60;;;;;;;20.98;51.53;98234.72;4992193;28;20341;-64
2021/11/10 06:29:26;;;;;;;3.17;2.87;;;;;;;20.98;51.74;98243.28;4974591;28;20195;-64
2021/11/10 06:31:53;;;;;;;2.80;2.50;;;;;;;20.98;51.54;98245.81;4991973;28;20249;-64
2021/11/10 06:34:20;;;;;;;3.03;2.63;;;;;;;20.57;51.76;98186.09;4978970;28;20195;-64
2021/11/10 06:36:46;;;;;;;3.03;2.80;;;;;;;20.83;51.91;98228.94;4991722;28;20644;-64
2021/11/10 06:39:13;;;;;;;3.10;2.77;;;;;;;20.70;52.16;98214.78;4999033;28;20225;-63
2021/11/10 06:41:40;;;;;;;2.67;2.47;;;;;;;20.33;52.68;98142.47;4990716;28;20198;-63
2021/11/10 06:44:07;;;;;;;2.87;2.67;;;;;;;20.95;52.42;98255.91;4974353;28;20222;-63
2021/11/10 06:46:33;;;;;;;2.70;2.50;;;;;;;20.89;52.49;98237.75;4991233;28;20257;-64
2021/11/10 06:49:00;;;;;;;3.10;2.80;;;;;;;20.97;52.24;98255.97;4992029;28;20281;-64
2021/11/10 06:51:27;;;;;;;2.63;2.43;;;;;;;20.98;52.21;98252.59;4991478;28;20218;-64
2021/11/10 06:53:54;;;;;;;2.80;2.60;;;;;;;20.97;52.00;98248.31;4986373;28;20261;-65
2021/11/10 06:56:20;;;;;;;2.90;2.60;;;;;;;20.97;52.21;98245.75;4979097;28;20278;-64
2021/11/10 06:58:48;;;;;;;3.00;2.70;;;;;;;20.98;52.09;98250.06;4985897;28;20306;-64
2021/11/10 07:01:15;;;;;;;2.93;2.63;;;;;;;20.22;51.96;98122.41;4994467;28;20203;-64
2021/11/10 07:03:42;;;;;;;2.57;2.37;;;;;;;20.98;52.12;98250.06;4987934;28;20860;-64
2021/11/10 07:06:08;;;;;;;3.17;2.87;;;;;;;20.98;52.21;98260.28;4975893;28;20322;-64
2021/11/10 07:08:36;;;;;;;3.40;2.87;;;;;;;20.90;52.12;98253.94;4991335;28;20225;-65
2021/11/10 07:11:02;;;;;;;3.20;2.90;;;;;;;20.88;52.10;98245.34;4991384;28;20242;-64
2021/11/10 07:13:29;;;;;;;2.53;2.33;;;;;;;20.98;51.99;98266.28;4991039;28;20230;-64
2021/11/10 07:15:56;;;;;;;2.73;2.53;;;;;;;20.98;51.99;98270.50;4992186;28;20246;-63
2021/11/10 07:18:22;;;;;;;2.73;2.53;;;;;;;20.98;51.98;98260.28;4976095;28;20301;-64
2021/11/10 07:20:49;;;;;;;2.60;2.40;;;;;;;20.97;52.08;98269.66;4990731;28;20302;-65
2021/11/10 07:23:15;;;;;;;2.90;2.70;;;;;;;20.96;52.20;98265.31;4990553;28;20273;-63
2021/11/10 07:25:42;;;;;;;3.53;3.13;;;;;;;20.96;51.73;98264.47;4990115;28;20199;-65
2021/11/10 07:28:09;;;;;;;3.20;2.87;;;;;;;20.94;51.84;98261.81;4991692;28;20306;-65
2021/11/10 07:30:37;;;;;;;6.83;2.80;;;;;;;20.81;51.62;98248.44;4991168;28;20250;-65
2021/11/10 07:33:04;;;;;;;3.40;3.10;;;;;;;20.92;51.56;98272.75;4961404;28;20260;-63
2021/11/10 07:35:31;;;;;;;3.43;3.07;;;;;;;20.96;51.90;98279.81;4973210;28;20207;-65
2021/11/10 07:37:57;;;;;;;2.90;2.57;;;;;;;20.95;51.76;98290.81;4973852;28;20257;-63
2021/11/10 07:40:25;;;;;;;3.20;2.77;;;;;;;20.91;51.56;98279.56;4966780;28;20210;-64
2021/11/10 07:42:52;;;;;;;4.87;3.10;;;;;;;20.88;51.79;98284.53;4990847;28;20235;-65
2021/11/10 07:45:32;;;;;;;4.07;2.87;;;;;;;20.96;51.58;98285.75;4972986;28;20230;-66
2021/11/10 07:47:59;;;;;;;3.60;2.77;;;;;;;20.92;51.68;98282.97;4994998;28;20211;-65
2021/11/10 07:50:26;;;;;;;3.40;3.10;;;;;;;20.89;51.91;98275.19;4998369;28;20253;-64
2021/11/10 07:52:53;;;;;;;5.87;3.70;;;;;;;20.95;51.27;98291.69;4986875;28;20234;-65
2021/11/10 07:55:20;;;;;;;13.03;5.97;;;;;;;20.93;45.51;98285.59;4993797;28;20534;-65
2021/11/10 07:57:47;;;;;;;10.93;6.50;;;;;;;20.91;43.04;98286.34;4994424;28;20254;-63
2021/11/10 08:00:33;;;;;;;9.80;5.60;;;;;;;20.79;42.83;98267.94;4994376;28;20195;-65
2021/11/10 08:03:00;;;;;;;14.20;5.67;;;;;;;20.85;43.24;98289.53;4994641;28;20198;-64
2021/11/10 08:05:26;;;;;;;10.30;5.60;;;;;;;20.83;44.48;98275.78;4993872;28;20234;-66
2021/11/10 08:07:53;;;;;;;8.87;5.13;;;;;;;20.73;45.18;98255.78;4992896;28;20246;-64
2021/11/10 08:10:40;;;;;;;9.13;5.67;;;;;;;20.72;45.64;98266.78;4994037;28;20199;-65
2021/11/10 08:13:06;;;;;;;7.60;5.20;;;;;;;20.71;46.12;98262.47;4977017;28;20285;-65
2021/11/10 08:15:33;;;;;;;8.53;5.20;;;;;;;20.78;47.06;98258.53;4976224;28;20319;-64
2021/11/10 08:17:59;;;;;;;10.53;5.37;;;;;;;20.79;46.83;98263.72;4998954;28;20268;-65
2021/11/10 08:20:26;;;;;;;7.73;5.20;;;;;;;20.79;47.23;98257.72;4994015;28;20237;-65
2021/11/10 08:22:52;;;;;;;9.40;4.90;;;;;;;20.80;47.48;98259.44;4991434;28;20645;-65
2021/11/10 08:25:19;;;;;;;7.57;4.90;;;;;;;20.79;47.53;98268.81;4991084;28;20257;-64
2021/11/10 08:27:46;;;;;;;9.73;4.80;;;;;;;20.81;47.81;98263.78;4976372;28;20263;-65
2021/11/10 08:30:17;;;;;;;7.57;5.03;;;;;;;20.81;47.92;98261.22;4994003;28;20203;-65
2021/11/10 08:32:45;;;;;;;8.77;4.70;;;;;;;20.80;47.79;98265.44;4977274;28;20230;-65
2021/11/10 08:35:12;;;;;;;10.67;5.73;;;;;;;20.80;48.05;98264.56;5005735;28;20231;-63
2021/11/10 08:37:38;;;;;;;6.33;5.33;;;;;;;20.72;47.96;98246.34;4993342;28;20284;-66
2021/11/10 08:40:06;;;;;;;10.37;5.60;;;;;;;20.75;48.13;98249.03;4975960;28;20274;-62
2021/11/10 08:42:33;;;;;;;9.83;5.57;;;;;;;20.82;47.93;98262.97;4993670;28;20256;-63
2021/11/10 08:45:20;;;;;;;6.13;5.20;;;;;;;20.79;48.63;98262.81;4993314;28;20198;-64
2021/11/10 08:47:48;;;;;;;9.23;5.53;;;;;;;20.81;48.60;98274.84;4963817;28;20316;-63
2021/11/10 08:50:16;;;;;;;6.57;4.50;;;;;;;20.80;48.88;98268.00;4992901;28;20211;-64
2021/11/10 08:52:44;;;;;;;7.07;4.83;;;;;;;20.82;49.04;98270.63;4976522;28;20237;-65
2021/11/10 08:55:12;;;;;;;6.93;4.70;;;;;;;20.80;49.32;98268.00;4989111;28;20696;-65
2021/11/10 08:57:39;;;;;;;8.23;4.93;;;;;;;20.78;49.14;98268.75;4987610;28;20223;-65
2021/11/10 09:00:07;;;;;;;7.03;5.50;;;;;;;20.79;49.25;98276.47;4983412;28;20226;-64
2021/11/10 09:02:35;;;;;;;6.80;5.23;;;;;;;20.80;49.32;98280.78;4992117;28;20289;-66
2021/11/10 09:05:05;;;;;;;7.33;4.90;;;;;;;20.81;49.48;98274.84;4993444;28;20198;-65
2021/11/10 09:07:32;;;;;;;6.87;5.07;;;;;;;20.73;49.53;98255.78;4993227;28;20239;-66
2021/11/10 09:09:59;;;;;;;8.73;5.60;;;;;;;20.82;49.56;98265.50;4976263;28;20190;-64
2021/11/10 09:12:26;;;;;;;5.97;5.00;;;;;;;20.83;49.61;98265.56;4993337;28;20278;-65
2021/11/10 09:14:52;;;;;;;6.50;5.17;;;;;;;20.84;50.13;98266.47;4993441;28;20222;-64
2021/11/10 09:17:20;;;;;;;7.13;4.90;;;;;;;20.86;50.37;98272.50;4992698;28;20242;-65
2021/11/10 09:19:47;;;;;;;7.07;4.97;;;;;;;20.85;50.03;98276.75;4993431;28;20550;-65
2021/11/10 09:22:13;;;;;;;7.97;5.33;;;;;;;20.85;49.96;98273.31;4992545;28;20274;-65
2021/11/10 09:24:40;;;;;;;8.23;5.07;;;;;;;20.82;50.19;98268.06;4992600;28;20195;-65
2021/11/10 09:27:07;;;;;;;6.03;5.03;;;;;;;20.86;50.37;98273.38;4993378;28;20214;-66
2021/11/10 09:29:33;;;;;;;5.57;4.67;;;;;;;20.87;50.34;98274.25;4986333;28;20222;-64
2021/11/10 09:32:01;;;;;;;6.60;4.97;;;;;;;20.87;50.31;98275.09;4959254;28;20198;-65
2021/11/10 09:34:28;;;;;;;5.47;4.60;;;;;;;20.81;50.30;98274.00;4995383;28;20233;-64
2021/11/10 09:36:54;;;;;;;6.20;4.50;;;;;;;20.86;50.66;98286.16;4992255;28;20247;-65
2021/11/10 09:39:22;;;;;;;6.60;5.10;;;;;;;20.86;50.25;98286.16;4987833;28;20266;-64
2021/11/10 09:41:51;;;;;;;5.43;4.50;;;;;;;20.84;50.37;98281.78;4991715;28;20202;-65
2021/11/10 09:44:20;;;;;;;5.53;4.53;;;;;;;20.85;50.46;98280.97;4996634;28;20245;-64
2021/11/10 09:46:47;;;;;;;48.20;33.23;;;;;;;20.84;49.56;98277.53;4974036;28;20274;-65
2021/11/10 09:49:14;;;;;;;46.13;33.60;;;;;;;20.85;49.55;98273.31;4992075;28;20187;-65
2021/11/10 09:51:42;;;;;;;46.60;32.07;;;;;;;20.85;49.52;98274.19;4992650;28;20230;-65
2021/11/10 09:54:09;;;;;;;39.83;28.43;;;;;;;20.86;49.70;98273.38;4973622;28;20278;-65
2021/11/10 09:56:36;;;;;;;42.57;29.83;;;;;;;20.48;49.72;98211.19;4993807;28;20223;-68
2021/11/10 09:59:03;;;;;;;38.70;29.13;;;;;;;20.74;50.27;98249.84;4975349;28;20210;-68
2021/11/10 10:01:34;;;;;;;36.00;27.53;;;;;;;20.70;50.00;98242.88;4978391;28;20190;-66
2021/11/10 10:04:01;;;;;;;34.10;26.50;;;;;;;20.88;50.11;98264.09;4960107;28;20260;-71
2021/11/10 10:06:29;;;;;;;32.33;25.63;;;;;;;20.69;50.06;98232.59;4973553;28;20269;-68
2021/11/10 10:08:56;;;;;;;35.73;25.13;;;;;;;20.78;50.26;98254.28;4980496;28;20187;-69
2021/11/10 10:11:23;;;;;;;30.40;24.00;;;;;;;19.90;50.43;98103.06;4974776;28;20241;-68
2021/11/10 10:13:49;;;;;;;29.63;22.87;;;;;;;20.87;50.55;98264.88;4980148;28;20251;-71
2021/11/10 10:16:23;;;;;;;27.73;22.47;;;;;;;20.88;50.60;98264.09;4992859;28;20215;-67
2021/11/10 10:18:50;;;;;;;30.50;22.33;;;;;;;20.87;50.54;98257.22;4960542;28;20231;-67
2021/11/10 10:21:18;;;;;;;27.20;20.93;;;;;;;20.81;50.56;98256.97;4970756;28;20211;-70
2021/11/10 10:23:48;;;;;;;29.63;21.37;;;;;;;20.75;50.59;98241.38;4963650;28;20203;-70
2021/11/10 10:26:22;;;;;;;27.83;21.10;;;;;;;20.83;50.55;98257.91;4976997;28;20210;-67
2021/11/10 10:28:51;;;;;;;26.00;20.57;;;;;;;20.86;50.72;98269.94;4977145;28;20226;-70
2021/11/10 10:31:24;;;;;;;24.53;20.03;;;;;;;20.81;51.01;98251.84;4972152;28;20194;-68
2021/11/10 10:33:56;;;;;;;27.90;20.40;;;;;;;20.85;50.81;98248.66;4994855;28;20199;-68
2021/11/10 10:36:25;;;;;;;24.37;19.50;;;;;;;20.67;50.65;98219.75;4993547;28;20234;-68
2021/11/10 10:38:52;;;;;;;23.23;18.90;;;;;;;20.68;50.95;98225.72;4977325;28;20302;-69
2021/11/10 10:41:30;;;;;;;25.47;19.20;;;;;;;20.40;51.05;98185.31;4985919;28;20203;-69
2021/11/10 10:44:05;;;;;;;23.57;18.43;;;;;;;20.88;51.04;98255.56;4961312;28;20678;-69
2021/11/10 10:46:34;;;;;;;26.50;18.67;;;;;;;20.87;50.94;98249.56;4976547;28;20674;-68
2021/11/10 10:49:23;;;;;;;24.87;19.30;;;;;;;20.88;51.10;98251.34;4993706;28;20217;-70
2021/11/10 10:51:52;;;;;;;23.73;18.67;;;;;;;20.63;51.03;98201.66;4992903;28;20203;-68
2021/11/10 10:54:26;;;;;;;21.83;17.67;;;;;;;20.82;51.09;98228.06;4955651;28;20688;-69
2021/11/10 10:56:55;;;;;;;21.07;17.07;;;;;;;20.86;51.03;98232.50;4977000;28;20223;-68
2021/11/10 10:59:23;;;;;;;23.37;18.37;;;;;;;20.64;50.98;98195.75;4965761;28;20214;-68
2021/11/10 11:01:51;;;;;;;21.60;16.67;;;;;;;20.71;50.79;98190.06;4979944;28;20199;-66
2021/11/10 11:04:20;;;;;;;21.67;17.13;;;;;;;20.65;51.16;98184.72;4976023;28;20571;-69
2021/11/10 11:07:03;;;;;;;23.70;17.70;;;;;;;20.90;51.19;98233.50;4977533;28;20639;-68
2021/11/10 11:09:46;;;;;;;22.23;17.03;;;;;;;20.77;51.40;98191.22;4987185;28;20196;-68
2021/11/10 11:15:00;;;;;;;20.83;16.03;;;;;;;20.90;51.43;98200.28;4986897;28;20199;-69
2021/11/10 11:17:35;;;;;;;22.13;17.57;;;;;;;20.90;51.37;98190.94;4995507;28;20221;-69
2021/11/10 11:20:13;;;;;;;22.00;16.47;;;;;;;20.82;51.22;98160.75;4976908;28;20226;-68
2021/11/10 11:22:46;;;;;;;21.60;17.17;;;;;;;20.91;51.27;98167.16;4976150;28;20210;-68
2021/11/10 11:25:16;;;;;;;20.93;16.43;;;;;;;20.90;51.41;98152.59;4989592;28;20202;-68
2021/11/10 11:27:59;;;;;;;18.27;14.97;;;;;;;20.81;51.13;98123.25;5000998;28;20257;-68
2021/11/10 11:30:36;;;;;;;20.80;16.60;;;;;;;20.80;51.31;98122.38;4976205;28;20207;-68
2021/11/10 11:33:15;;;;;;;19.17;15.23;;;;;;;20.85;51.15;98138.78;4999363;28;20190;-68
2021/11/10 11:35:46;;;;;;;19.73;16.17;;;;;;;20.91;51.16;98153.47;4995868;28;20241;-70
2021/11/10 11:38:24;;;;;;;28.13;21.43;;;;;;;20.92;51.19;98148.44;4993890;28;20202;-68